MiSS Kori — WDF5911 — position and weather

sailwx.info

Track history (hours):
 
Tides and Currents Weather Stations Pressure Air Temp Water Temp Dewpoint Dewpoint Depression Visibility Wind Speed Wind Dir Waves Ship Positions

MiSS Kori

Owner: Crosby Marine Transportation LLC, Golden Meadow, LA. More information available from US FCC via Universal Licensing System and Coast Guard Vessel Documentation Center.

Last reported at 2018-Jan-12 12:52 UTC. Time now 2018-Jan-23 06:06 UTC.
Position N 29°44' W 095°10'.
Warning: this ship's position is 10 days out of date.

Length 18 m; draft 2.5 m.

Type: Towing. MMSI: 367468590.

Date/timePositionNaut miles runAvg speedWind from/ knotsBaromVisibWave heightAir tempDewpointWater temp
2018-Jan-12 12:52N 29°44' W 095°10'1 0.1
2018-Jan-12 08:50N 29°44' W 095°09'1 0.0
2018-Jan-11 07:49N 29°44' W 095°10'0 0.0
2018-Jan-10 00:23N 29°44' W 095°10'1 1.3
2018-Jan-09 23:57N 29°44' W 095°09'1 0.1
2018-Jan-09 16:39N 29°44' W 095°10'0 0.0
2018-Jan-09 12:12N 29°44' W 095°10'0 1.3
2018-Jan-09 12:00N 29°44' W 095°10'1 1.3
2018-Jan-09 11:28N 29°44' W 095°09'1 0.2
2018-Jan-09 08:39N 29°44' W 095°08'1 7.2
2018-Jan-09 08:30N 29°44' W 095°09'0 0.4
2018-Jan-09 08:00N 29°44' W 095°09'0 0.0
2018-Jan-09 07:30N 29°44' W 095°09'0 0.0
2018-Jan-09 07:00N 29°44' W 095°09'0 0.0
2018-Jan-09 06:30N 29°44' W 095°09'0 0.0
2018-Jan-09 06:00N 29°44' W 095°09'0 0.0
2018-Jan-09 05:28N 29°44' W 095°09'0 0.3
2018-Jan-09 05:00N 29°44' W 095°10'0 0.0
2018-Jan-09 04:28N 29°44' W 095°10'0 0.0
2018-Jan-09 04:00N 29°44' W 095°10'0 0.0
2018-Jan-09 03:29N 29°44' W 095°10'0 0.0
2018-Jan-09 02:59N 29°44' W 095°10'0 0.0
2018-Jan-09 02:09N 29°44' W 095°10'1 0.4
2018-Jan-08 23:39N 29°44' W 095°08'0 0.0
2018-Jan-08 12:27N 29°44' W 095°08'1 0.8
2018-Jan-08 11:48N 29°44' W 095°09'1 0.3
2018-Jan-08 09:31N 29°44' W 095°08'0 8.6
2018-Jan-08 09:30N 29°44' W 095°08'1 2.4
2018-Jan-08 08:58N 29°44' W 095°10'1 0.4
2018-Jan-08 05:51N 29°44' W 095°08'1 1.1
2018-Jan-08 04:50N 29°44' W 095°09'0 0.0
2018-Jan-08 04:21N 29°44' W 095°09'0 0.0
2018-Jan-08 03:46N 29°44' W 095°09'0 0.0
2018-Jan-08 03:27N 29°44' W 095°09'0 0.1
2018-Jan-08 02:58N 29°44' W 095°09'0 0.0
2018-Jan-08 02:25N 29°44' W 095°09'0 0.0
2018-Jan-08 01:49N 29°44' W 095°09'0 0.0
2018-Jan-08 01:30N 29°44' W 095°09'0 0.0
2018-Jan-08 00:27N 29°44' W 095°09'0 0.1
2018-Jan-07 23:59N 29°44' W 095°10'0 0.1
2018-Jan-07 23:28N 29°44' W 095°09'0 0.2
2018-Jan-07 23:00N 29°44' W 095°10'1 0.6
2018-Jan-07 20:43N 29°44' W 095°08'0 0.1
2018-Jan-07 18:00N 29°44' W 095°08'1 2.2
2018-Jan-07 17:26N 29°44' W 095°10'0 0.0
2018-Jan-07 16:54N 29°44' W 095°10'0 0.0
2018-Jan-07 13:48N 29°44' W 095°09'0 0.0
2018-Jan-07 12:24N 29°44' W 095°09'0 0.0
2018-Jan-07 11:59N 29°44' W 095°09'1 0.1
2018-Jan-07 06:22N 29°44' W 095°09'1 1.4
2018-Jan-07 05:54N 29°44' W 095°10'0 0.0
2018-Jan-07 05:30N 29°44' W 095°10'0 0.2
2018-Jan-07 05:00N 29°44' W 095°09'0 0.0
2018-Jan-07 04:28N 29°44' W 095°09'0 0.0
2018-Jan-07 03:54N 29°44' W 095°09'0 0.2
2018-Jan-07 03:30N 29°44' W 095°10'0 0.1
2018-Jan-07 03:00N 29°44' W 095°09'0 0.0
2018-Jan-07 02:30N 29°44' W 095°09'0 0.0
2018-Jan-07 01:59N 29°44' W 095°09'0 0.0
2018-Jan-07 01:30N 29°44' W 095°09'0 0.0
2018-Jan-07 00:30N 29°44' W 095°09'0 0.0
2018-Jan-06 23:59N 29°44' W 095°09'0 0.0
2018-Jan-06 23:29N 29°44' W 095°09'0 0.0
2018-Jan-06 22:59N 29°44' W 095°09'0 0.1
2018-Jan-06 22:30N 29°44' W 095°09'1 0.5
2018-Jan-06 19:42N 29°44' W 095°08'1 5.4
2018-Jan-06 19:27N 29°44' W 095°09'0 0.1
2018-Jan-06 19:00N 29°44' W 095°09'0 0.0
2018-Jan-06 18:27N 29°44' W 095°09'0 0.0
2018-Jan-06 17:49N 29°44' W 095°09'0 0.0
2018-Jan-06 17:28N 29°44' W 095°09'0 0.0
2018-Jan-06 16:44N 29°44' W 095°09'0 0.0
2018-Jan-06 16:30N 29°44' W 095°09'0 0.2
2018-Jan-06 16:00N 29°44' W 095°10'0 0.1
2018-Jan-06 14:10N 29°44' W 095°10'0 0.0
2018-Jan-06 13:56N 29°44' W 095°10'0 0.0
2018-Jan-06 13:20N 29°44' W 095°10'0 0.2
2018-Jan-06 12:59N 29°44' W 095°10'4 2.3
2018-Jan-06 11:18N 29°46' W 095°05'3 7.1
2018-Jan-06 10:53N 29°44' W 095°08'1 2.7
2018-Jan-06 10:26N 29°44' W 095°10'0 0.2
2018-Jan-06 10:00N 29°44' W 095°10'0 0.1
2018-Jan-06 07:34N 29°44' W 095°09'0 0.0
2018-Jan-06 07:30N 29°44' W 095°09'0 0.0
2018-Jan-06 07:00N 29°44' W 095°09'0 0.0
2018-Jan-06 06:29N 29°44' W 095°09'0 0.0
2018-Jan-06 05:59N 29°44' W 095°09'4 2.7
2018-Jan-06 04:29N 29°46' W 095°05'3 6.4
2018-Jan-06 04:00N 29°44' W 095°08'1 2.7
2018-Jan-06 03:30N 29°44' W 095°10'0 0.3
2018-Jan-06 02:59N 29°44' W 095°10'0 0.2
2018-Jan-06 02:28N 29°44' W 095°10'0 0.1
2018-Jan-06 01:54N 29°44' W 095°09'0 0.0
2018-Jan-06 01:25N 29°44' W 095°09'0 0.0
2018-Jan-06 00:47N 29°44' W 095°09'0 0.0
2018-Jan-05 19:09N 29°44' W 095°09'3 0.4
2018-Jan-05 12:21N 29°45' W 095°06'2 6.4
2018-Jan-05 12:00N 29°44' W 095°09'1 1.6
2018-Jan-05 11:30N 29°44' W 095°10'0 0.3
2018-Jan-05 11:00N 29°44' W 095°10'0 0.1
2018-Jan-05 10:28N 29°44' W 095°10'0 0.2
2018-Jan-05 09:58N 29°44' W 095°09'0 0.0
2018-Jan-05 09:29N 29°44' W 095°09'0 0.1
2018-Jan-05 09:00N 29°44' W 095°10'0 0.2
2018-Jan-05 08:30N 29°44' W 095°10'3 0.5
2018-Jan-05 03:31N 29°44' W 095°07'1 6.0
2018-Jan-05 03:23N 29°44' W 095°07'2 4.5
2018-Jan-05 02:58N 29°44' W 095°10'0 0.1
2018-Jan-05 02:28N 29°44' W 095°09'0 0.0
2018-Jan-05 01:55N 29°44' W 095°09'0 0.0
2018-Jan-04 13:16N 29°44' W 095°09'0 0.0
2018-Jan-04 12:59N 29°44' W 095°09'0 0.2
2018-Jan-04 12:30N 29°44' W 095°10'2 4.4
2018-Jan-04 12:00N 29°44' W 095°07'1 0.8
2018-Jan-04 10:14N 29°45' W 095°06'2 6.8
2018-Jan-04 09:54N 29°44' W 095°08'1 3.3
2018-Jan-04 09:29N 29°44' W 095°09'0 0.1
2018-Jan-04 09:00N 29°44' W 095°09'0 0.2
2018-Jan-04 08:29N 29°44' W 095°10'0 0.2
2018-Jan-04 08:00N 29°44' W 095°10'0 0.1
2018-Jan-04 07:30N 29°44' W 095°09'0 0.0
2018-Jan-04 06:52N 29°44' W 095°09'1 0.5
2018-Jan-04 04:10N 29°44' W 095°08'1 7.3
2018-Jan-04 04:00N 29°44' W 095°09'1 0.3
2018-Jan-03 23:42N 29°44' W 095°08'1 0.1
2018-Jan-03 13:18N 29°44' W 095°09'1 0.4
2018-Jan-03 11:44N 29°44' W 095°08'1 4.4
2018-Jan-03 11:27N 29°44' W 095°09'0 0.0
2018-Jan-03 10:56N 29°44' W 095°09'0 0.0
2018-Jan-03 10:30N 29°44' W 095°09'0 0.2
2018-Jan-03 10:00N 29°44' W 095°10'0 0.0
2018-Jan-03 07:09N 29°44' W 095°09'0 0.0
2018-Jan-03 06:48N 29°44' W 095°09'0 0.1
2018-Jan-03 06:21N 29°44' W 095°10'4 1.8
2018-Jan-03 04:21N 29°45' W 095°06'3 6.7
2018-Jan-03 03:59N 29°44' W 095°08'1 2.8
2018-Jan-03 03:30N 29°44' W 095°10'0 0.1
2018-Jan-03 02:59N 29°44' W 095°10'0 0.1
2018-Jan-03 02:25N 29°44' W 095°09'0 0.0
2018-Jan-03 02:00N 29°44' W 095°09'0 0.0
2018-Jan-02 18:46N 29°44' W 095°10'  
Track history (hours):
 
Tides and Currents Weather Stations Pressure Air Temp Water Temp Dewpoint Dewpoint Depression Visibility Wind Speed Wind Dir Waves Ship Positions

MiSS Kori

Owner: Crosby Marine Transportation LLC, Golden Meadow, LA. More information available from US FCC via Universal Licensing System and Coast Guard Vessel Documentation Center.

Last reported at 2018-Jan-12 12:52 UTC. Time now 2018-Jan-23 06:06 UTC.
Position N 29°44' W 095°10'.
Warning: this ship's position is 10 days out of date.

Length 18 m; draft 2.5 m.

Type: Towing. MMSI: 367468590.

Date/timePositionNaut miles runAvg speedWind from/ knotsBaromVisibWave heightAir tempDewpointWater temp
2018-Jan-12 12:52N 29°44' W 095°10'1 0.1
2018-Jan-12 08:50N 29°44' W 095°09'1 0.0
2018-Jan-11 07:49N 29°44' W 095°10'0 0.0
2018-Jan-10 00:23N 29°44' W 095°10'1 1.3
2018-Jan-09 23:57N 29°44' W 095°09'1 0.1
2018-Jan-09 16:39N 29°44' W 095°10'0 0.0
2018-Jan-09 12:12N 29°44' W 095°10'0 1.3
2018-Jan-09 12:00N 29°44' W 095°10'1 1.3
2018-Jan-09 11:28N 29°44' W 095°09'1 0.2
2018-Jan-09 08:39N 29°44' W 095°08'1 7.2
2018-Jan-09 08:30N 29°44' W 095°09'0 0.4
2018-Jan-09 08:00N 29°44' W 095°09'0 0.0
2018-Jan-09 07:30N 29°44' W 095°09'0 0.0
2018-Jan-09 07:00N 29°44' W 095°09'0 0.0
2018-Jan-09 06:30N 29°44' W 095°09'0 0.0
2018-Jan-09 06:00N 29°44' W 095°09'0 0.0
2018-Jan-09 05:28N 29°44' W 095°09'0 0.3
2018-Jan-09 05:00N 29°44' W 095°10'0 0.0
2018-Jan-09 04:28N 29°44' W 095°10'0 0.0
2018-Jan-09 04:00N 29°44' W 095°10'0 0.0
2018-Jan-09 03:29N 29°44' W 095°10'0 0.0
2018-Jan-09 02:59N 29°44' W 095°10'0 0.0
2018-Jan-09 02:09N 29°44' W 095°10'1 0.4
2018-Jan-08 23:39N 29°44' W 095°08'0 0.0
2018-Jan-08 12:27N 29°44' W 095°08'1 0.8
2018-Jan-08 11:48N 29°44' W 095°09'1 0.3
2018-Jan-08 09:31N 29°44' W 095°08'0 8.6
2018-Jan-08 09:30N 29°44' W 095°08'1 2.4
2018-Jan-08 08:58N 29°44' W 095°10'1 0.4
2018-Jan-08 05:51N 29°44' W 095°08'1 1.1
2018-Jan-08 04:50N 29°44' W 095°09'0 0.0
2018-Jan-08 04:21N 29°44' W 095°09'0 0.0
2018-Jan-08 03:46N 29°44' W 095°09'0 0.0
2018-Jan-08 03:27N 29°44' W 095°09'0 0.1
2018-Jan-08 02:58N 29°44' W 095°09'0 0.0
2018-Jan-08 02:25N 29°44' W 095°09'0 0.0
2018-Jan-08 01:49N 29°44' W 095°09'0 0.0
2018-Jan-08 01:30N 29°44' W 095°09'0 0.0
2018-Jan-08 00:27N 29°44' W 095°09'0 0.1
2018-Jan-07 23:59N 29°44' W 095°10'0 0.1
2018-Jan-07 23:28N 29°44' W 095°09'0 0.2
2018-Jan-07 23:00N 29°44' W 095°10'1 0.6
2018-Jan-07 20:43N 29°44' W 095°08'0 0.1
2018-Jan-07 18:00N 29°44' W 095°08'1 2.2
2018-Jan-07 17:26N 29°44' W 095°10'0 0.0
2018-Jan-07 16:54N 29°44' W 095°10'0 0.0
2018-Jan-07 13:48N 29°44' W 095°09'0 0.0
2018-Jan-07 12:24N 29°44' W 095°09'0 0.0
2018-Jan-07 11:59N 29°44' W 095°09'1 0.1
2018-Jan-07 06:22N 29°44' W 095°09'1 1.4
2018-Jan-07 05:54N 29°44' W 095°10'0 0.0
2018-Jan-07 05:30N 29°44' W 095°10'0 0.2
2018-Jan-07 05:00N 29°44' W 095°09'0 0.0
2018-Jan-07 04:28N 29°44' W 095°09'0 0.0
2018-Jan-07 03:54N 29°44' W 095°09'0 0.2
2018-Jan-07 03:30N 29°44' W 095°10'0 0.1
2018-Jan-07 03:00N 29°44' W 095°09'0 0.0
2018-Jan-07 02:30N 29°44' W 095°09'0 0.0
2018-Jan-07 01:59N 29°44' W 095°09'0 0.0
2018-Jan-07 01:30N 29°44' W 095°09'0 0.0
2018-Jan-07 00:30N 29°44' W 095°09'0 0.0
2018-Jan-06 23:59N 29°44' W 095°09'0 0.0
2018-Jan-06 23:29N 29°44' W 095°09'0 0.0
2018-Jan-06 22:59N 29°44' W 095°09'0 0.1
2018-Jan-06 22:30N 29°44' W 095°09'1 0.5
2018-Jan-06 19:42N 29°44' W 095°08'1 5.4
2018-Jan-06 19:27N 29°44' W 095°09'0 0.1
2018-Jan-06 19:00N 29°44' W 095°09'0 0.0
2018-Jan-06 18:27N 29°44' W 095°09'0 0.0
2018-Jan-06 17:49N 29°44' W 095°09'0 0.0
2018-Jan-06 17:28N 29°44' W 095°09'0 0.0
2018-Jan-06 16:44N 29°44' W 095°09'0 0.0
2018-Jan-06 16:30N 29°44' W 095°09'0 0.2
2018-Jan-06 16:00N 29°44' W 095°10'0 0.1
2018-Jan-06 14:10N 29°44' W 095°10'0 0.0
2018-Jan-06 13:56N 29°44' W 095°10'0 0.0
2018-Jan-06 13:20N 29°44' W 095°10'0 0.2
2018-Jan-06 12:59N 29°44' W 095°10'4 2.3
2018-Jan-06 11:18N 29°46' W 095°05'3 7.1
2018-Jan-06 10:53N 29°44' W 095°08'1 2.7
2018-Jan-06 10:26N 29°44' W 095°10'0 0.2
2018-Jan-06 10:00N 29°44' W 095°10'0 0.1
2018-Jan-06 07:34N 29°44' W 095°09'0 0.0
2018-Jan-06 07:30N 29°44' W 095°09'0 0.0
2018-Jan-06 07:00N 29°44' W 095°09'0 0.0
2018-Jan-06 06:29N 29°44' W 095°09'0 0.0
2018-Jan-06 05:59N 29°44' W 095°09'4 2.7
2018-Jan-06 04:29N 29°46' W 095°05'3 6.4
2018-Jan-06 04:00N 29°44' W 095°08'1 2.7
2018-Jan-06 03:30N 29°44' W 095°10'0 0.3
2018-Jan-06 02:59N 29°44' W 095°10'0 0.2
2018-Jan-06 02:28N 29°44' W 095°10'0 0.1
2018-Jan-06 01:54N 29°44' W 095°09'0 0.0
2018-Jan-06 01:25N 29°44' W 095°09'0 0.0
2018-Jan-06 00:47N 29°44' W 095°09'0 0.0
2018-Jan-05 19:09N 29°44' W 095°09'3 0.4
2018-Jan-05 12:21N 29°45' W 095°06'2 6.4
2018-Jan-05 12:00N 29°44' W 095°09'1 1.6
2018-Jan-05 11:30N 29°44' W 095°10'0 0.3
2018-Jan-05 11:00N 29°44' W 095°10'0 0.1
2018-Jan-05 10:28N 29°44' W 095°10'0 0.2
2018-Jan-05 09:58N 29°44' W 095°09'0 0.0
2018-Jan-05 09:29N 29°44' W 095°09'0 0.1
2018-Jan-05 09:00N 29°44' W 095°10'0 0.2
2018-Jan-05 08:30N 29°44' W 095°10'3 0.5
2018-Jan-05 03:31N 29°44' W 095°07'1 6.0
2018-Jan-05 03:23N 29°44' W 095°07'2 4.5
2018-Jan-05 02:58N 29°44' W 095°10'0 0.1
2018-Jan-05 02:28N 29°44' W 095°09'0 0.0
2018-Jan-05 01:55N 29°44' W 095°09'0 0.0
2018-Jan-04 13:16N 29°44' W 095°09'0 0.0
2018-Jan-04 12:59N 29°44' W 095°09'0 0.2
2018-Jan-04 12:30N 29°44' W 095°10'2 4.4
2018-Jan-04 12:00N 29°44' W 095°07'1 0.8
2018-Jan-04 10:14N 29°45' W 095°06'2 6.8
2018-Jan-04 09:54N 29°44' W 095°08'1 3.3
2018-Jan-04 09:29N 29°44' W 095°09'0 0.1
2018-Jan-04 09:00N 29°44' W 095°09'0 0.2
2018-Jan-04 08:29N 29°44' W 095°10'0 0.2
2018-Jan-04 08:00N 29°44' W 095°10'0 0.1
2018-Jan-04 07:30N 29°44' W 095°09'0 0.0
2018-Jan-04 06:52N 29°44' W 095°09'1 0.5
2018-Jan-04 04:10N 29°44' W 095°08'1 7.3
2018-Jan-04 04:00N 29°44' W 095°09'1 0.3
2018-Jan-03 23:42N 29°44' W 095°08'1 0.1
2018-Jan-03 13:18N 29°44' W 095°09'1 0.4
2018-Jan-03 11:44N 29°44' W 095°08'1 4.4
2018-Jan-03 11:27N 29°44' W 095°09'0 0.0
2018-Jan-03 10:56N 29°44' W 095°09'0 0.0
2018-Jan-03 10:30N 29°44' W 095°09'0 0.2
2018-Jan-03 10:00N 29°44' W 095°10'0 0.0
2018-Jan-03 07:09N 29°44' W 095°09'0 0.0
2018-Jan-03 06:48N 29°44' W 095°09'0 0.1
2018-Jan-03 06:21N 29°44' W 095°10'4 1.8
2018-Jan-03 04:21N 29°45' W 095°06'3 6.7
2018-Jan-03 03:59N 29°44' W 095°08'1 2.8
2018-Jan-03 03:30N 29°44' W 095°10'0 0.1
2018-Jan-03 02:59N 29°44' W 095°10'0 0.1
2018-Jan-03 02:25N 29°44' W 095°09'0 0.0
2018-Jan-03 02:00N 29°44' W 095°09'0 0.0
2018-Jan-02 18:46N 29°44' W 095°10'  

Dump ship's entire track history